In Rescue
 
Open Full Screen Window  High Contrast Mode
Wind Gusting 21 knots
14
April 20, 2024 8:56 AM CDT
Weather Information
Wind Direction
  320 °
Wind Speed
  14 kt (16 mph)
Wind Gust
  21 kt (24 mph)
Altimeter
30.37 in
Visibility
10 SM
Temperature
02° C
36° F
Dewpoint
-03° C
27° F
Humidity
69%
Sky Condition
Overcast @ 4,300 ft
Scattered @ 2,500 ft
VFR

METAR KGDB 201356Z AUTO 32014G21KT 10SM SCT025 OVC043 02/M03 A3037 RMK AO2 T00201034

FAA Disclaimer: The data displayed is for advisory purposes only and is not to be used for flight planning or operations.